createdAt,value
2023-05-13T00:01:06.025Z,14.10
2023-05-13T00:04:47.883Z,14.10
2023-05-13T00:08:29.669Z,14.00
2023-05-13T00:12:11.586Z,14.00
2023-05-13T00:15:53.570Z,14.00
2023-05-13T00:19:35.555Z,13.90
2023-05-13T00:23:17.543Z,13.90
2023-05-13T00:26:59.479Z,13.80
2023-05-13T00:30:43.789Z,13.80
2023-05-13T00:34:25.670Z,13.70
2023-05-13T00:38:08.040Z,13.70
2023-05-13T00:41:49.842Z,13.70
2023-05-13T00:45:31.991Z,13.70
2023-05-13T00:49:13.976Z,13.60
2023-05-13T00:52:58.659Z,13.60
2023-05-13T00:56:40.532Z,13.60
2023-05-13T01:00:22.624Z,13.50
2023-05-13T01:04:16.457Z,13.50
2023-05-13T01:08:17.455Z,13.40
2023-05-13T01:12:07.567Z,13.40
2023-05-13T01:15:59.976Z,13.40
2023-05-13T01:19:46.861Z,13.40
2023-05-13T01:23:28.733Z,13.30
2023-05-13T01:27:10.604Z,13.30
2023-05-13T01:30:53.118Z,13.30
2023-05-13T01:34:36.142Z,13.20
2023-05-13T01:38:20.241Z,13.10
2023-05-13T01:42:02.103Z,13.10
2023-05-13T01:45:43.866Z,13.10
2023-05-13T01:49:26.048Z,13.10
2023-05-13T01:53:07.883Z,13.10
2023-05-13T01:56:49.756Z,13.10
2023-05-13T02:00:31.547Z,13.10
2023-05-13T02:04:13.403Z,13.00
2023-05-13T02:07:55.189Z,13.10
2023-05-13T02:11:36.992Z,13.00
2023-05-13T02:15:18.920Z,13.00
2023-05-13T02:19:00.875Z,13.00
2023-05-13T02:22:42.790Z,12.90
2023-05-13T02:26:24.702Z,12.90
2023-05-13T02:30:07.342Z,12.90
2023-05-13T02:33:49.188Z,12.90
2023-05-13T02:37:31.008Z,12.80
2023-05-13T02:41:12.888Z,12.80
2023-05-13T02:44:54.745Z,12.80
2023-05-13T02:48:36.567Z,12.80
2023-05-13T02:52:18.395Z,12.70
2023-05-13T02:56:00.182Z,12.70
2023-05-13T02:59:42.013Z,12.70
2023-05-13T03:03:23.994Z,12.70
2023-05-13T03:07:06.035Z,12.70
2023-05-13T03:10:47.957Z,12.60
2023-05-13T03:14:29.816Z,12.60
2023-05-13T03:18:11.661Z,12.60
2023-05-13T03:21:53.500Z,12.60
2023-05-13T03:25:35.325Z,12.60
2023-05-13T03:29:17.142Z,12.60
2023-05-13T03:32:59.002Z,12.60
2023-05-13T03:36:41.051Z,12.60
2023-05-13T03:40:23.028Z,12.60
2023-05-13T03:44:05.242Z,12.60
2023-05-13T03:47:47.128Z,12.50
2023-05-13T03:51:29.030Z,12.50
2023-05-13T03:55:10.879Z,12.50
2023-05-13T03:58:52.670Z,12.40
2023-05-13T04:02:34.719Z,12.50
2023-05-13T04:06:16.746Z,12.40
2023-05-13T04:09:58.588Z,12.40
2023-05-13T04:13:40.546Z,12.40
2023-05-13T04:17:22.375Z,12.30
2023-05-13T04:21:11.394Z,12.30
2023-05-13T04:24:56.544Z,12.30
2023-05-13T04:28:38.509Z,12.30
2023-05-13T04:32:22.202Z,12.30
2023-05-13T04:36:04.410Z,12.30
2023-05-13T04:39:47.096Z,12.20
2023-05-13T04:43:29.728Z,12.20
2023-05-13T04:47:11.951Z,12.20
2023-05-13T04:50:54.021Z,12.10
2023-05-13T04:54:37.743Z,12.10
2023-05-13T04:58:19.513Z,12.10
2023-05-13T05:02:01.472Z,12.10
2023-05-13T05:05:43.329Z,12.10
2023-05-13T05:09:25.328Z,12.10
2023-05-13T05:13:07.157Z,12.20
2023-05-13T05:16:52.389Z,12.10
2023-05-13T05:20:34.244Z,12.10
2023-05-13T05:24:16.108Z,12.10
2023-05-13T05:27:58.148Z,12.10
2023-05-13T05:31:41.039Z,12.10
2023-05-13T05:35:22.878Z,12.10
2023-05-13T05:39:04.796Z,12.10
2023-05-13T05:42:46.662Z,12.10
2023-05-13T05:46:28.587Z,12.20
2023-05-13T05:50:10.772Z,12.10
2023-05-13T05:53:52.624Z,12.10
2023-05-13T05:57:34.416Z,12.20
2023-05-13T06:01:16.348Z,12.20
2023-05-13T06:04:58.174Z,12.10
2023-05-13T06:08:39.987Z,12.20
2023-05-13T06:12:22.817Z,12.10
2023-05-13T06:16:05.034Z,12.20
2023-05-13T06:19:49.975Z,12.20
2023-05-13T06:23:31.804Z,12.10
2023-05-13T06:27:14.088Z,12.20
2023-05-13T06:30:56.757Z,12.10
2023-05-13T06:34:40.430Z,12.20
2023-05-13T06:38:22.478Z,12.20
2023-05-13T06:42:05.072Z,12.20
2023-05-13T06:45:47.026Z,12.20
2023-05-13T06:49:28.852Z,12.30
2023-05-13T06:53:13.867Z,12.20
2023-05-13T06:56:56.065Z,12.20
2023-05-13T07:00:41.150Z,12.30
2023-05-13T07:04:22.992Z,12.30
2023-05-13T07:08:08.690Z,12.30
2023-05-13T07:11:50.798Z,12.30
2023-05-13T07:15:32.729Z,12.40
2023-05-13T07:19:14.655Z,12.40
2023-05-13T07:22:56.509Z,12.40
2023-05-13T07:26:39.108Z,12.50
2023-05-13T07:30:21.380Z,12.50
2023-05-13T07:34:04.050Z,12.50
2023-05-13T07:37:45.914Z,12.50
2023-05-13T07:41:27.837Z,12.40
2023-05-13T07:45:10.275Z,12.50
2023-05-13T07:48:52.057Z,12.50
2023-05-13T07:52:34.148Z,12.50
2023-05-13T07:56:15.949Z,12.50
2023-05-13T07:59:57.815Z,12.50
2023-05-13T08:03:39.767Z,12.60
2023-05-13T08:07:21.790Z,12.60
2023-05-13T08:11:03.586Z,12.70
2023-05-13T08:14:46.546Z,12.70
2023-05-13T08:18:30.271Z,12.80
2023-05-13T08:22:12.461Z,12.80
2023-05-13T08:25:56.382Z,12.90
2023-05-13T08:29:38.197Z,12.90
2023-05-13T08:33:19.997Z,13.00
2023-05-13T08:37:02.435Z,13.00
2023-05-13T08:40:44.891Z,13.00
2023-05-13T08:44:29.385Z,13.10
2023-05-13T08:48:12.375Z,13.20
2023-05-13T08:51:54.884Z,13.30
2023-05-13T08:55:38.467Z,13.30
2023-05-13T08:59:20.404Z,13.40
2023-05-13T09:03:02.627Z,13.50
2023-05-13T09:06:49.411Z,13.60
2023-05-13T09:10:31.264Z,13.70
2023-05-13T09:14:14.366Z,13.80
2023-05-13T09:18:03.409Z,13.80
2023-05-13T09:21:45.754Z,13.90
2023-05-13T09:25:28.967Z,14.00
2023-05-13T09:29:26.024Z,14.10
2023-05-13T09:33:16.518Z,14.20
2023-05-13T09:37:01.643Z,14.40
2023-05-13T09:40:53.285Z,14.50
2023-05-13T09:44:35.241Z,14.60
2023-05-13T09:48:17.064Z,14.70
2023-05-13T09:51:58.923Z,14.90
2023-05-13T09:55:46.398Z,15.00
2023-05-13T09:59:28.359Z,14.90
2023-05-13T10:03:12.034Z,15.00
2023-05-13T10:06:54.895Z,15.00
2023-05-13T10:10:37.912Z,15.00
2023-05-13T10:14:20.239Z,15.00
2023-05-13T10:18:04.198Z,15.00
2023-05-13T10:21:49.465Z,15.10
2023-05-13T10:25:31.618Z,15.10
2023-05-13T10:29:13.906Z,15.20
2023-05-13T10:32:55.808Z,15.20
2023-05-13T10:37:00.524Z,15.30
2023-05-13T10:40:47.901Z,15.40
2023-05-13T10:44:29.823Z,15.50
2023-05-13T10:48:13.544Z,15.60
2023-05-13T10:52:04.854Z,15.60
2023-05-13T10:55:46.874Z,15.60
2023-05-13T10:59:30.680Z,15.70
2023-05-13T11:03:18.748Z,15.70
2023-05-13T11:07:15.579Z,15.80
2023-05-13T11:10:58.377Z,15.80
2023-05-13T11:14:44.088Z,15.80
2023-05-13T11:18:33.278Z,15.90
2023-05-13T11:22:17.008Z,16.00
2023-05-13T11:26:17.250Z,16.10
2023-05-13T11:29:59.166Z,16.20
2023-05-13T11:34:10.211Z,16.20
2023-05-13T11:37:52.533Z,16.20
2023-05-13T11:41:34.727Z,16.40
2023-05-13T11:45:20.978Z,16.40
2023-05-13T11:49:05.876Z,16.50
2023-05-13T11:52:57.250Z,16.70
2023-05-13T11:56:43.158Z,17.00
2023-05-13T12:00:33.094Z,17.30
2023-05-13T12:04:14.873Z,17.50
2023-05-13T12:07:58.253Z,17.80
2023-05-13T12:11:40.780Z,18.00
2023-05-13T12:15:23.412Z,18.10
2023-05-13T12:19:07.218Z,18.10
2023-05-13T12:22:52.578Z,18.00
2023-05-13T12:26:34.564Z,18.10
2023-05-13T12:30:16.462Z,18.30
2023-05-13T12:33:58.315Z,18.40
2023-05-13T12:37:40.147Z,18.30
2023-05-13T12:41:23.019Z,18.20
2023-05-13T12:45:06.142Z,18.20
2023-05-13T12:48:47.989Z,18.30
2023-05-13T12:52:29.798Z,18.50
2023-05-13T12:56:12.227Z,18.70
2023-05-13T12:59:54.082Z,19.00
2023-05-13T13:03:36.168Z,19.50
2023-05-13T13:07:18.225Z,19.90
2023-05-13T13:11:01.308Z,20.30
2023-05-13T13:14:43.274Z,20.70
2023-05-13T13:18:25.877Z,21.30
2023-05-13T13:22:07.895Z,21.70
2023-05-13T13:25:49.832Z,22.10
2023-05-13T13:29:32.357Z,22.60
2023-05-13T13:33:18.023Z,22.60
2023-05-13T13:36:59.929Z,22.50
2023-05-13T13:40:41.787Z,22.30
2023-05-13T13:44:23.841Z,22.10
2023-05-13T13:48:06.258Z,22.30
2023-05-13T13:51:48.180Z,22.90
2023-05-13T13:55:30.060Z,23.30
2023-05-13T13:59:11.953Z,24.10
2023-05-13T14:02:54.055Z,24.50
2023-05-13T14:06:35.984Z,24.90
2023-05-13T14:10:17.779Z,25.30
2023-05-13T14:13:59.693Z,25.30
2023-05-13T14:17:41.591Z,25.30
2023-05-13T14:21:23.504Z,25.10
2023-05-13T14:25:05.694Z,24.60
2023-05-13T14:28:47.587Z,24.00
2023-05-13T14:32:29.544Z,23.40
2023-05-13T14:36:16.082Z,22.90
2023-05-13T14:39:58.039Z,22.50
2023-05-13T14:43:39.919Z,22.10
2023-05-13T14:47:21.734Z,21.80
2023-05-13T14:51:03.678Z,21.60
2023-05-13T14:54:45.468Z,21.50
2023-05-13T14:58:27.317Z,21.40
2023-05-13T15:02:09.219Z,21.20
2023-05-13T15:05:51.739Z,21.10
2023-05-13T15:09:33.622Z,21.00
2023-05-13T15:13:15.581Z,21.00
2023-05-13T15:16:57.564Z,20.90
2023-05-13T15:20:39.492Z,20.80
2023-05-13T15:24:21.459Z,20.80
2023-05-13T15:28:03.823Z,20.80
2023-05-13T15:31:45.772Z,20.70
2023-05-13T15:35:27.662Z,20.70
2023-05-13T15:39:11.181Z,20.70
2023-05-13T15:42:53.201Z,20.70
2023-05-13T15:46:35.262Z,20.60
2023-05-13T15:50:18.911Z,20.60
2023-05-13T15:54:01.124Z,20.50
2023-05-13T15:57:43.134Z,20.40
2023-05-13T16:01:25.271Z,20.40
2023-05-13T16:05:07.990Z,20.40
2023-05-13T16:08:49.881Z,20.40
2023-05-13T16:12:34.996Z,20.40
2023-05-13T16:16:16.881Z,20.40
2023-05-13T16:19:59.902Z,20.40
2023-05-13T16:23:41.812Z,20.30
2023-05-13T16:27:23.720Z,20.30
2023-05-13T16:31:05.700Z,20.30
2023-05-13T16:34:47.719Z,20.30
2023-05-13T16:38:30.714Z,20.30
2023-05-13T16:42:15.716Z,20.30
2023-05-13T16:45:57.543Z,20.30
2023-05-13T16:49:39.492Z,20.30
2023-05-13T16:53:26.324Z,20.20
2023-05-13T16:57:08.230Z,20.20
2023-05-13T17:00:50.179Z,20.20
2023-05-13T17:04:32.149Z,20.10
2023-05-13T17:08:13.937Z,20.10
2023-05-13T17:11:59.295Z,20.00
2023-05-13T17:15:41.128Z,20.00
2023-05-13T17:19:22.936Z,19.90
2023-05-13T17:23:04.745Z,19.90
2023-05-13T17:26:46.549Z,19.90
2023-05-13T17:30:28.569Z,19.80
2023-05-13T17:34:10.438Z,19.80
2023-05-13T17:37:52.315Z,19.80
2023-05-13T17:41:34.360Z,19.70
2023-05-13T17:45:16.282Z,19.60
2023-05-13T17:48:58.248Z,19.60
2023-05-13T17:52:40.842Z,19.50
2023-05-13T17:56:22.775Z,19.50
2023-05-13T18:00:06.995Z,19.40
2023-05-13T18:03:48.909Z,19.40
2023-05-13T18:07:31.041Z,19.30
2023-05-13T18:11:12.848Z,19.30
2023-05-13T18:14:54.814Z,19.20
2023-05-13T18:18:36.997Z,19.20
2023-05-13T18:22:18.888Z,19.10
2023-05-13T18:26:00.947Z,19.00
2023-05-13T18:29:42.775Z,19.00
2023-05-13T18:33:24.660Z,18.90
2023-05-13T18:37:06.690Z,18.80
2023-05-13T18:40:48.492Z,18.80
2023-05-13T18:44:30.487Z,18.70
2023-05-13T18:48:12.333Z,18.60
2023-05-13T18:51:54.756Z,18.60
2023-05-13T18:55:36.765Z,18.50
2023-05-13T18:59:18.613Z,18.40
2023-05-13T19:03:00.744Z,18.40
2023-05-13T19:06:42.642Z,18.30
2023-05-13T19:10:24.818Z,18.20
2023-05-13T19:14:06.940Z,18.10
2023-05-13T19:17:48.932Z,18.00
2023-05-13T19:21:30.918Z,17.90
2023-05-13T19:25:12.729Z,17.80
2023-05-13T19:28:54.549Z,17.70
2023-05-13T19:32:36.820Z,17.60
2023-05-13T19:36:18.911Z,17.50
2023-05-13T19:40:00.818Z,17.40
2023-05-13T19:43:42.620Z,17.30
2023-05-13T19:47:26.812Z,17.20
2023-05-13T19:51:08.714Z,17.10
2023-05-13T19:54:51.939Z,17.00
2023-05-13T19:58:34.085Z,16.90
2023-05-13T20:02:16.008Z,16.80
2023-05-13T20:05:57.910Z,16.70
2023-05-13T20:09:39.724Z,16.60
2023-05-13T20:13:21.516Z,16.50
2023-05-13T20:17:03.708Z,16.40
2023-05-13T20:20:47.066Z,16.30
2023-05-13T20:24:28.915Z,16.20
2023-05-13T20:28:10.696Z,16.10
2023-05-13T20:31:52.650Z,16.00
2023-05-13T20:35:36.796Z,15.90
2023-05-13T20:39:18.651Z,15.90
2023-05-13T20:43:01.431Z,15.70
2023-05-13T20:46:43.914Z,15.60
2023-05-13T20:50:27.533Z,15.50
2023-05-13T20:54:11.155Z,15.50
2023-05-13T20:57:53.075Z,15.40
2023-05-13T21:01:36.006Z,15.30
2023-05-13T21:05:17.968Z,15.20
2023-05-13T21:08:59.909Z,15.20
2023-05-13T21:12:43.816Z,15.10
2023-05-13T21:16:25.984Z,15.00
2023-05-13T21:20:08.680Z,14.90
2023-05-13T21:23:50.647Z,14.80
2023-05-13T21:27:44.731Z,14.80
2023-05-13T21:31:26.674Z,14.60
2023-05-13T21:35:08.706Z,14.60
2023-05-13T21:38:51.715Z,14.50
2023-05-13T21:42:33.502Z,14.50
2023-05-13T21:46:15.679Z,14.40
2023-05-13T21:49:57.576Z,14.30
2023-05-13T21:53:39.445Z,14.30
2023-05-13T21:57:22.062Z,14.20
2023-05-13T22:01:03.988Z,14.10
2023-05-13T22:04:46.338Z,14.10
2023-05-13T22:08:29.386Z,14.00
2023-05-13T22:12:11.189Z,14.00
2023-05-13T22:15:53.176Z,13.90
2023-05-13T22:19:35.180Z,13.80
2023-05-13T22:23:18.149Z,13.80
2023-05-13T22:27:00.306Z,13.70
2023-05-13T22:30:42.472Z,13.70
2023-05-13T22:34:25.719Z,13.60
2023-05-13T22:38:07.504Z,13.50
2023-05-13T22:41:49.305Z,13.50
2023-05-13T22:45:31.144Z,13.40
2023-05-13T22:49:12.950Z,13.40
2023-05-13T22:52:54.798Z,13.30
2023-05-13T22:56:36.666Z,13.30
2023-05-13T23:00:18.526Z,13.20
2023-05-13T23:04:00.625Z,13.20
2023-05-13T23:07:42.563Z,13.10
2023-05-13T23:11:24.372Z,13.10
2023-05-13T23:15:33.279Z,13.00
2023-05-13T23:19:15.192Z,12.90
2023-05-13T23:22:57.072Z,12.80
2023-05-13T23:26:38.989Z,12.80
2023-05-13T23:30:21.289Z,12.70
2023-05-13T23:34:03.226Z,12.60
2023-05-13T23:37:45.122Z,12.60
2023-05-13T23:41:27.181Z,12.50
2023-05-13T23:45:09.728Z,12.40
2023-05-13T23:48:51.658Z,12.40
2023-05-13T23:52:33.483Z,12.30
2023-05-13T23:56:15.579Z,12.20
2023-05-13T23:59:57.517Z,12.20
